Time;durP1;ratioP1;P1;durP2;ratioP2;P2;SDS_P1;SDS_P2;PMS_P1;PMS_P2;Temp;Humidity;BMP_temperature;BMP_pressure;BME280_temperature;BME280_humidity;BME280_pressure;Samples;Min_cycle;Max_cycle;Signal;HPM_P1;HPM_P2
2022/12/23 00:01:02;;;;;;;19.20;13.73;;;12.10;96.70;;;;;;4896524;29;20048;-77
2022/12/23 00:03:33;;;;;;;22.75;16.08;;;12.10;96.70;;;;;;4898742;29;20052;-76
2022/12/23 00:06:08;;;;;;;24.00;16.83;;;12.20;96.70;;;;;;4922340;29;20044;-76
2022/12/23 00:08:37;;;;;;;20.30;16.30;;;12.10;96.70;;;;;;4920340;29;20115;-77
2022/12/23 00:11:11;;;;;;;19.80;15.10;;;12.10;96.70;;;;;;4886782;29;20102;-76
2022/12/23 00:16:26;;;;;;;21.48;16.30;;;12.10;96.70;;;;;;4912698;29;20329;-76
2022/12/23 00:18:56;;;;;;;22.83;16.45;;;12.10;96.70;;;;;;4893016;29;20055;-76
2022/12/23 00:21:25;;;;;;;26.33;15.38;;;12.10;96.70;;;;;;4917167;29;20553;-76
2022/12/23 00:23:53;;;;;;;34.17;17.65;;;12.10;96.70;;;;;;4905219;29;20047;-76
2022/12/23 00:26:23;;;;;;;23.80;16.30;;;12.10;96.70;;;;;;4912072;29;20044;-76
2022/12/23 00:28:54;;;;;;;25.92;17.77;;;12.10;96.70;;;;;;4905266;29;20055;-76
2022/12/23 00:31:22;;;;;;;22.73;17.27;;;12.10;96.70;;;;;;4892909;29;20060;-76
2022/12/23 00:33:53;;;;;;;17.83;14.82;;;12.10;96.70;;;;;;4906058;29;20064;-76
2022/12/23 00:36:26;;;;;;;20.08;16.48;;;12.10;96.70;;;;;;4921190;29;20118;-76
2022/12/23 00:44:30;;;;;;;22.55;17.10;;;12.10;96.70;;;;;;4907285;29;20146;-76
2022/12/23 00:46:58;;;;;;;20.63;15.88;;;12.10;96.70;;;;;;4890066;29;20040;-76
2022/12/23 00:49:41;;;;;;;20.50;15.63;;;12.00;96.70;;;;;;4909377;29;20059;-76
2022/12/23 00:52:14;;;;;;;18.55;15.65;;;12.00;96.70;;;;;;4903724;29;20051;-76
2022/12/23 00:54:42;;;;;;;18.17;14.38;;;12.00;96.70;;;;;;4909755;29;20044;-76
2022/12/23 00:57:11;;;;;;;20.88;15.98;;;12.00;96.70;;;;;;4922950;29;20075;-76
2022/12/23 00:59:39;;;;;;;18.88;14.30;;;11.90;96.70;;;;;;4896527;29;20052;-76
2022/12/23 01:07:45;;;;;;;16.58;13.13;;;11.80;96.70;;;;;;4923043;29;20072;-75
2022/12/23 01:10:14;;;;;;;16.55;13.23;;;11.80;96.70;;;;;;4917611;29;20050;-78
2022/12/23 01:12:42;;;;;;;14.82;11.75;;;11.70;96.70;;;;;;4897674;29;20359;-76
2022/12/23 01:15:11;;;;;;;14.48;12.43;;;11.70;96.70;;;;;;4902965;29;20677;-77
2022/12/23 01:17:39;;;;;;;15.43;12.20;;;11.70;96.70;;;;;;4898555;29;20047;-76
2022/12/23 01:20:08;;;;;;;14.85;10.93;;;11.60;96.70;;;;;;4896478;29;20608;-75
2022/12/23 01:22:37;;;;;;;12.82;10.45;;;11.60;96.70;;;;;;4889182;29;20060;-76
2022/12/23 01:25:08;;;;;;;12.88;10.82;;;11.60;96.70;;;;;;4906613;29;20055;-75
2022/12/23 01:27:36;;;;;;;12.75;10.10;;;11.60;96.70;;;;;;4892363;29;20040;-76
2022/12/23 01:30:05;;;;;;;12.85;9.82;;;11.50;96.70;;;;;;4907981;29;20086;-76
2022/12/23 01:32:35;;;;;;;9.57;8.57;;;11.50;96.70;;;;;;4905973;29;20040;-76
2022/12/23 01:35:04;;;;;;;13.68;9.23;;;11.50;96.70;;;;;;4913192;29;20052;-76
2022/12/23 01:37:33;;;;;;;11.52;9.10;;;11.50;96.70;;;;;;4898587;29;20434;-76
2022/12/23 01:40:01;;;;;;;10.35;8.90;;;11.40;96.70;;;;;;4895768;29;20044;-76
2022/12/23 01:42:44;;;;;;;9.30;8.18;;;11.40;96.70;;;;;;4894577;29;20059;-76
2022/12/23 01:45:18;;;;;;;13.32;9.18;;;11.40;96.70;;;;;;4894127;29;20055;-76
2022/12/23 01:47:51;;;;;;;13.15;9.93;;;11.30;96.70;;;;;;4880414;29;20051;-76
2022/12/23 01:50:23;;;;;;;11.43;8.63;;;11.30;96.70;;;;;;4888605;29;20106;-76
2022/12/23 01:52:59;;;;;;;10.70;9.55;;;11.30;96.70;;;;;;4897263;29;20160;-75
2022/12/23 01:55:39;;;;;;;13.68;10.02;;;11.30;96.70;;;;;;4900891;29;20044;-76
2022/12/23 01:58:13;;;;;;;10.52;9.27;;;11.20;96.70;;;;;;4901286;29;20493;-76
2022/12/23 02:03:43;;;;;;;10.95;9.65;;;11.20;96.70;;;;;;4913266;29;20138;-76
2022/12/23 02:09:15;;;;;;;10.48;9.00;;;11.10;96.70;;;;;;4912659;29;20096;-75
2022/12/23 02:12:20;;;;;;;9.63;8.30;;;11.10;96.70;;;;;;4882074;29;20059;-76
2022/12/23 02:18:13;;;;;;;9.55;8.20;;;11.10;96.70;;;;;;4916739;29;20102;-76
2022/12/23 02:21:26;;;;;;;9.73;8.57;;;11.00;96.70;;;;;;4901072;29;20052;-75
2022/12/23 02:24:36;;;;;;;10.43;8.45;;;11.00;96.70;;;;;;4845581;29;20080;-76
2022/12/23 02:27:27;;;;;;;9.38;7.47;;;10.90;96.70;;;;;;4840028;29;20057;-76
2022/12/23 02:30:31;;;;;;;9.82;8.32;;;10.90;96.70;;;;;;4887392;29;20527;-76
2022/12/23 02:33:30;;;;;;;8.75;7.78;;;10.90;96.70;;;;;;4914227;29;20059;-76
2022/12/23 02:36:09;;;;;;;9.88;7.85;;;10.90;96.70;;;;;;4885666;29;20054;-76
2022/12/23 02:38:46;;;;;;;9.45;8.10;;;10.80;96.70;;;;;;4905220;29;20051;-76
2022/12/23 02:41:21;;;;;;;8.60;7.70;;;10.90;96.70;;;;;;4923259;29;20167;-76
2022/12/23 02:43:56;;;;;;;14.45;7.53;;;10.80;96.70;;;;;;4883099;29;20461;-76
2022/12/23 02:46:31;;;;;;;15.93;7.45;;;10.90;96.70;;;;;;4888435;29;20527;-76
2022/12/23 02:49:07;;;;;;;30.65;8.35;;;10.90;96.70;;;;;;4903155;29;20048;-76
2022/12/23 02:51:41;;;;;;;21.95;8.20;;;10.80;96.70;;;;;;4912272;29;20044;-76
2022/12/23 02:54:13;;;;;;;10.68;7.40;;;10.90;96.70;;;;;;4879157;29;20036;-76
2022/12/23 02:56:46;;;;;;;12.93;8.07;;;10.90;96.70;;;;;;4904057;29;20048;-76
2022/12/23 02:59:18;;;;;;;27.00;9.80;;;10.80;96.70;;;;;;4909209;29;20067;-76
2022/12/23 03:01:48;;;;;;;11.50;8.82;;;10.80;96.70;;;;;;4902700;29;20138;-76
2022/12/23 03:04:19;;;;;;;10.57;8.40;;;10.90;96.70;;;;;;4900083;29;20131;-76
2022/12/23 03:06:52;;;;;;;9.40;8.40;;;10.90;96.70;;;;;;4918431;29;20054;-76
2022/12/23 03:09:30;;;;;;;9.80;8.55;;;10.90;96.70;;;;;;4903228;29;20568;-76
2022/12/23 03:12:05;;;;;;;11.43;8.48;;;10.90;96.70;;;;;;4895893;29;20082;-76
2022/12/23 03:15:06;;;;;;;10.82;8.05;;;11.00;96.70;;;;;;4914629;29;20507;-76
2022/12/23 03:17:47;;;;;;;9.52;7.53;;;10.90;96.70;;;;;;4901614;29;20047;-76
2022/12/23 03:20:26;;;;;;;8.30;7.28;;;10.90;96.70;;;;;;4876823;29;20060;-76
2022/12/23 03:23:01;;;;;;;7.82;7.03;;;10.90;96.70;;;;;;4888243;29;20040;-76
2022/12/23 03:25:34;;;;;;;8.52;6.70;;;10.90;96.70;;;;;;4904223;29;20075;-76
2022/12/23 03:28:09;;;;;;;6.75;6.05;;;10.90;96.70;;;;;;4910236;29;20046;-76
2022/12/23 03:30:42;;;;;;;6.97;5.90;;;10.90;96.70;;;;;;4897259;29;20047;-76
2022/12/23 03:33:15;;;;;;;8.98;7.18;;;11.00;96.70;;;;;;4894949;29;20054;-77
2022/12/23 03:35:50;;;;;;;7.32;6.57;;;11.00;96.70;;;;;;4896294;29;20048;-76
2022/12/23 03:38:20;;;;;;;8.18;7.07;;;11.00;96.70;;;;;;4892928;29;20052;-76
2022/12/23 03:40:53;;;;;;;7.18;6.18;;;11.00;96.70;;;;;;4899980;29;20100;-76
2022/12/23 03:43:26;;;;;;;7.90;7.10;;;11.10;96.70;;;;;;4891943;29;20052;-76
2022/12/23 03:45:58;;;;;;;7.47;6.18;;;11.00;96.70;;;;;;4890287;29;20165;-77
2022/12/23 03:48:31;;;;;;;7.55;6.75;;;11.10;96.70;;;;;;4898701;29;20044;-76
2022/12/23 03:51:07;;;;;;;7.28;6.47;;;11.10;96.70;;;;;;4895539;29;20562;-76
2022/12/23 03:53:41;;;;;;;7.95;6.85;;;11.10;96.70;;;;;;4888904;29;20302;-76
2022/12/23 03:56:17;;;;;;;8.02;6.35;;;11.10;96.70;;;;;;4892380;29;20068;-76
2022/12/23 03:58:51;;;;;;;7.78;6.40;;;11.10;96.70;;;;;;4893321;29;20054;-76
2022/12/23 04:01:26;;;;;;;7.65;6.20;;;11.10;96.70;;;;;;4889245;29;20092;-76
2022/12/23 04:04:01;;;;;;;7.53;6.65;;;11.10;96.70;;;;;;4898978;29;20132;-77
2022/12/23 04:06:35;;;;;;;7.35;5.72;;;11.10;96.70;;;;;;4894759;29;20047;-76
2022/12/23 04:09:05;;;;;;;10.18;6.63;;;11.10;96.70;;;;;;4893637;29;20111;-76
2022/12/23 04:11:34;;;;;;;7.88;6.95;;;11.10;96.70;;;;;;4901559;29;20590;-76
2022/12/23 04:14:02;;;;;;;7.32;6.25;;;11.10;96.70;;;;;;4899312;29;20533;-76
2022/12/23 04:16:31;;;;;;;7.25;5.95;;;11.00;96.70;;;;;;4891782;29;20076;-76
2022/12/23 04:18:59;;;;;;;10.63;6.78;;;11.00;96.70;;;;;;4887276;29;20052;-76
2022/12/23 04:21:27;;;;;;;8.10;6.60;;;11.10;96.70;;;;;;4898496;29;20060;-75
2022/12/23 04:23:56;;;;;;;8.18;6.57;;;11.10;96.70;;;;;;4895718;29;20055;-76
2022/12/23 04:26:24;;;;;;;7.00;6.20;;;11.10;96.70;;;;;;4900405;29;20071;-76
2022/12/23 04:28:52;;;;;;;9.25;6.75;;;11.10;96.70;;;;;;4901768;29;20044;-76
2022/12/23 04:31:19;;;;;;;7.65;6.57;;;11.10;96.70;;;;;;4878056;29;20874;-76
2022/12/23 04:33:47;;;;;;;8.35;6.38;;;11.10;96.70;;;;;;4903552;29;20613;-75
2022/12/23 04:36:15;;;;;;;9.32;7.18;;;11.10;96.70;;;;;;4889586;29;20056;-76
2022/12/23 04:38:43;;;;;;;9.60;6.63;;;11.10;96.70;;;;;;4894431;29;20055;-77
2022/12/23 04:41:13;;;;;;;9.45;6.88;;;11.10;96.70;;;;;;4898923;29;20404;-77
2022/12/23 04:43:41;;;;;;;7.32;6.03;;;11.20;96.70;;;;;;4889031;29;20763;-77
2022/12/23 04:46:14;;;;;;;9.02;6.70;;;11.20;96.70;;;;;;4901260;29;20037;-76
2022/12/23 04:48:42;;;;;;;10.80;6.95;;;11.20;96.70;;;;;;4899039;29;20127;-76
2022/12/23 04:51:10;;;;;;;9.13;6.35;;;11.20;96.70;;;;;;4892490;29;20072;-76
2022/12/23 04:53:38;;;;;;;9.02;6.53;;;11.20;96.70;;;;;;4891717;29;20053;-76
2022/12/23 04:56:06;;;;;;;8.88;6.65;;;11.20;96.70;;;;;;4891844;29;20067;-76
2022/12/23 04:58:35;;;;;;;7.38;6.47;;;11.20;96.70;;;;;;4895982;29;20033;-77
2022/12/23 05:01:05;;;;;;;7.15;6.45;;;11.30;96.70;;;;;;4904740;29;20183;-76
2022/12/23 05:03:33;;;;;;;8.57;5.97;;;11.30;96.70;;;;;;4893121;29;20108;-76
2022/12/23 05:06:01;;;;;;;7.25;6.13;;;11.30;96.70;;;;;;4895757;29;20048;-76
2022/12/23 05:08:29;;;;;;;8.23;6.32;;;11.30;96.70;;;;;;4894761;29;20483;-76
2022/12/23 05:10:57;;;;;;;7.30;6.13;;;11.30;96.70;;;;;;4903050;29;20052;-76
2022/12/23 05:13:25;;;;;;;8.02;6.35;;;11.30;96.70;;;;;;4895060;29;20079;-77
2022/12/23 05:15:55;;;;;;;8.52;6.53;;;11.30;96.70;;;;;;4902331;29;20074;-76
2022/12/23 05:18:23;;;;;;;8.02;5.70;;;11.30;96.70;;;;;;4893507;29;20051;-76
2022/12/23 05:20:51;;;;;;;6.82;5.60;;;11.30;96.70;;;;;;4900980;29;20060;-77
2022/12/23 05:23:19;;;;;;;7.70;5.63;;;11.30;96.70;;;;;;4891526;29;20634;-76
2022/12/23 05:25:54;;;;;;;6.43;5.68;;;11.30;96.70;;;;;;4894298;29;20083;-77
2022/12/23 05:28:23;;;;;;;5.68;5.15;;;11.20;96.70;;;;;;4902888;29;20050;-76
2022/12/23 05:30:59;;;;;;;7.63;5.88;;;11.20;96.70;;;;;;4893994;29;20064;-76
2022/12/23 05:33:27;;;;;;;6.78;5.07;;;11.20;96.70;;;;;;4923503;29;20048;-76
2022/12/23 05:35:56;;;;;;;6.15;5.55;;;11.20;96.70;;;;;;4879837;29;20044;-76
2022/12/23 05:38:24;;;;;;;8.20;5.57;;;11.20;96.70;;;;;;4897507;29;20049;-76
2022/12/23 05:40:52;;;;;;;7.43;5.75;;;11.30;96.70;;;;;;4928084;29;20046;-76
2022/12/23 05:43:20;;;;;;;8.55;7.22;;;11.30;96.70;;;;;;4891950;29;20625;-76
2022/12/23 05:45:49;;;;;;;8.63;7.68;;;11.30;96.70;;;;;;4927695;29;20086;-76
2022/12/23 05:48:18;;;;;;;9.20;7.18;;;11.30;96.70;;;;;;4902746;29;20055;-76
2022/12/23 05:50:49;;;;;;;7.55;6.50;;;11.30;96.70;;;;;;4903586;29;20044;-77
2022/12/23 05:53:18;;;;;;;7.05;5.82;;;11.20;96.70;;;;;;4901393;29;20044;-76
2022/12/23 05:55:46;;;;;;;8.25;6.80;;;11.30;96.70;;;;;;4928592;29;20047;-76
2022/12/23 05:58:14;;;;;;;7.43;5.80;;;11.20;96.70;;;;;;4902933;29;20489;-76
2022/12/23 06:00:42;;;;;;;6.10;5.50;;;11.20;96.70;;;;;;4911823;29;20071;-76
2022/12/23 06:03:10;;;;;;;6.75;5.50;;;11.20;96.70;;;;;;4914154;29;20152;-76
2022/12/23 06:05:42;;;;;;;7.13;5.78;;;11.30;96.70;;;;;;4927894;29;20696;-75
2022/12/23 06:08:10;;;;;;;8.25;5.55;;;11.30;96.70;;;;;;4929462;29;20127;-76
2022/12/23 06:10:38;;;;;;;6.57;5.88;;;11.30;96.70;;;;;;4924418;29;20051;-76
2022/12/23 06:13:07;;;;;;;7.82;5.90;;;11.30;96.70;;;;;;4929449;29;20050;-76
2022/12/23 06:15:35;;;;;;;6.80;5.70;;;11.30;96.70;;;;;;4884839;29;20139;-76
2022/12/23 06:18:03;;;;;;;6.78;6.18;;;11.30;96.70;;;;;;4918852;29;20044;-76
2022/12/23 06:20:31;;;;;;;7.93;5.68;;;11.30;96.70;;;;;;4911888;29;20088;-77
2022/12/23 06:23:00;;;;;;;6.70;5.18;;;11.30;96.70;;;;;;4877581;29;20481;-76
2022/12/23 06:25:28;;;;;;;7.78;6.07;;;11.30;96.70;;;;;;4922854;29;20111;-77
2022/12/23 06:27:56;;;;;;;7.57;5.10;;;11.30;96.70;;;;;;4900702;29;20040;-76
2022/12/23 06:30:24;;;;;;;6.78;6.03;;;11.30;96.70;;;;;;4901303;29;20098;-75
2022/12/23 06:32:52;;;;;;;7.65;5.72;;;11.30;96.70;;;;;;4918421;29;20067;-77
2022/12/23 06:35:20;;;;;;;6.97;5.15;;;11.30;96.70;;;;;;4901503;29;20075;-77
2022/12/23 06:37:47;;;;;;;7.80;5.82;;;11.30;96.70;;;;;;4898834;29;20526;-76
2022/12/23 06:40:17;;;;;;;7.03;5.25;;;11.30;96.70;;;;;;4896278;29;20059;-77
2022/12/23 06:42:45;;;;;;;6.18;5.32;;;11.30;96.70;;;;;;4907326;29;20051;-77
2022/12/23 06:45:13;;;;;;;6.20;5.60;;;11.30;96.70;;;;;;4901030;29;20765;-76
2022/12/23 06:47:40;;;;;;;7.55;5.10;;;11.30;96.70;;;;;;4908270;29;20605;-76
2022/12/23 06:50:09;;;;;;;8.18;5.95;;;11.30;96.70;;;;;;4892437;29;20171;-76
2022/12/23 06:52:37;;;;;;;6.32;5.22;;;11.40;96.70;;;;;;4913210;29;20071;-76
2022/12/23 06:55:05;;;;;;;7.82;5.35;;;11.40;96.70;;;;;;4901880;29;20074;-76
2022/12/23 06:57:35;;;;;;;8.73;5.78;;;11.40;96.70;;;;;;4927698;29;20043;-76
2022/12/23 07:00:03;;;;;;;8.10;5.63;;;11.40;96.70;;;;;;4900701;29;20490;-76
2022/12/23 07:02:31;;;;;;;8.43;5.82;;;11.40;96.70;;;;;;4917249;29;20056;-76
2022/12/23 07:04:59;;;;;;;8.02;5.90;;;11.40;96.70;;;;;;4900257;29;20601;-77
2022/12/23 07:07:27;;;;;;;9.40;5.38;;;11.40;96.70;;;;;;4878016;29;20048;-76
2022/12/23 07:09:55;;;;;;;5.72;4.95;;;11.40;96.70;;;;;;4901347;29;20587;-76
2022/12/23 07:12:23;;;;;;;7.90;5.85;;;11.40;96.70;;;;;;4906711;29;20048;-76
2022/12/23 07:14:52;;;;;;;8.82;5.50;;;11.40;96.70;;;;;;4898902;29;20061;-76
2022/12/23 07:17:20;;;;;;;7.75;5.72;;;11.40;96.70;;;;;;4893130;29;21367;-76
2022/12/23 07:19:48;;;;;;;6.97;5.13;;;11.40;96.70;;;;;;4915979;29;20131;-76
2022/12/23 07:22:16;;;;;;;7.53;5.30;;;11.40;96.70;;;;;;4906164;29;20056;-77
2022/12/23 07:24:44;;;;;;;6.70;6.00;;;11.40;96.70;;;;;;4915484;29;20058;-77
2022/12/23 07:27:12;;;;;;;6.28;5.20;;;11.40;96.70;;;;;;4900875;29;20044;-77
2022/12/23 07:29:40;;;;;;;7.40;5.32;;;11.40;96.70;;;;;;4903990;29;20091;-77
2022/12/23 07:32:09;;;;;;;5.25;4.72;;;11.40;96.70;;;;;;4917884;29;20139;-77
2022/12/23 07:34:37;;;;;;;5.93;4.50;;;11.40;96.70;;;;;;4881877;29;20068;-76
2022/12/23 07:37:05;;;;;;;6.90;4.57;;;11.50;96.70;;;;;;4922751;29;20040;-73
2022/12/23 07:39:33;;;;;;;9.30;5.00;;;11.50;96.70;;;;;;4898022;29;20140;-75
2022/12/23 07:42:01;;;;;;;7.82;5.28;;;11.50;96.70;;;;;;4890174;29;20059;-75
2022/12/23 07:44:49;;;;;;;6.20;4.90;;;11.60;96.70;;;;;;4894650;29;20103;-76
2022/12/23 07:47:18;;;;;;;6.25;4.72;;;11.60;96.70;;;;;;4894807;29;20071;-76
2022/12/23 07:49:46;;;;;;;5.72;4.53;;;11.60;96.70;;;;;;4891027;29;20247;-75
2022/12/23 07:52:14;;;;;;;6.35;5.05;;;11.60;96.70;;;;;;4898332;29;20511;-75
2022/12/23 07:54:42;;;;;;;10.13;5.53;;;11.60;96.70;;;;;;4910312;29;20116;-75
2022/12/23 07:57:11;;;;;;;7.63;5.88;;;11.60;96.70;;;;;;4926054;29;20063;-74
2022/12/23 07:59:39;;;;;;;7.00;5.43;;;11.70;96.70;;;;;;4909094;29;20364;-77
2022/12/23 08:02:08;;;;;;;7.30;5.47;;;11.70;96.70;;;;;;4922420;29;20051;-75
2022/12/23 08:04:38;;;;;;;9.55;6.70;;;11.70;96.70;;;;;;4908574;29;20047;-77
2022/12/23 08:07:12;;;;;;;8.93;6.53;;;11.80;96.70;;;;;;4907707;29;20072;-76
2022/12/23 08:09:41;;;;;;;9.10;6.47;;;11.80;96.70;;;;;;4888600;29;20094;-75
2022/12/23 08:12:09;;;;;;;7.50;5.35;;;11.80;96.70;;;;;;4898419;29;20048;-75
2022/12/23 08:14:38;;;;;;;5.88;4.88;;;11.80;96.70;;;;;;4909841;29;20512;-76
2022/12/23 08:17:06;;;;;;;7.22;5.07;;;11.80;96.70;;;;;;4911436;29;20048;-76
2022/12/23 08:19:35;;;;;;;7.47;5.47;;;11.80;96.70;;;;;;4883504;29;20087;-76
2022/12/23 08:22:06;;;;;;;7.63;5.35;;;11.80;96.70;;;;;;4895823;29;20507;-76
2022/12/23 08:24:34;;;;;;;10.55;5.18;;;11.80;96.70;;;;;;4897087;29;20048;-75
2022/12/23 08:27:02;;;;;;;7.70;5.13;;;11.80;96.70;;;;;;4905633;29;20523;-74
2022/12/23 08:29:31;;;;;;;6.80;5.13;;;11.90;96.70;;;;;;4898443;29;20072;-75
2022/12/23 08:32:03;;;;;;;5.28;4.68;;;11.80;96.70;;;;;;4900643;29;20633;-74
2022/12/23 08:34:31;;;;;;;5.03;4.22;;;11.80;96.70;;;;;;4905111;29;20045;-74
2022/12/23 08:37:00;;;;;;;7.38;4.63;;;11.80;96.70;;;;;;4881554;29;20079;-75
2022/12/23 08:39:29;;;;;;;5.68;4.43;;;11.80;96.70;;;;;;4903128;29;20092;-75
2022/12/23 08:41:57;;;;;;;5.40;4.80;;;11.80;96.70;;;;;;4899392;29;20055;-76
2022/12/23 08:44:26;;;;;;;8.00;5.00;;;11.80;96.70;;;;;;4893294;29;20675;-76
2022/12/23 08:46:55;;;;;;;7.70;5.10;;;11.90;96.70;;;;;;4896398;29;20064;-76
2022/12/23 08:49:23;;;;;;;8.38;5.05;;;11.90;96.70;;;;;;4899989;29;20064;-76
2022/12/23 08:51:57;;;;;;;6.05;4.90;;;11.90;96.70;;;;;;4894592;29;20109;-76
2022/12/23 08:54:28;;;;;;;7.15;5.03;;;12.00;96.70;;;;;;4895381;29;20045;-74
2022/12/23 08:56:59;;;;;;;7.30;5.43;;;12.00;96.70;;;;;;4896645;29;20056;-75
2022/12/23 08:59:27;;;;;;;7.07;5.05;;;12.00;96.70;;;;;;4894768;29;20048;-75
2022/12/23 09:02:00;;;;;;;7.60;5.40;;;12.00;96.70;;;;;;4896388;29;20040;-74
2022/12/23 09:04:30;;;;;;;8.40;4.38;;;12.00;96.70;;;;;;4900856;29;20060;-75
2022/12/23 09:07:10;;;;;;;10.25;4.95;;;12.00;96.70;;;;;;4896273;29;20634;-74
2022/12/23 09:09:38;;;;;;;7.38;4.95;;;12.00;96.70;;;;;;4895851;29;20060;-73
2022/12/23 09:12:07;;;;;;;10.48;5.63;;;12.10;96.70;;;;;;4886198;29;20067;-74
2022/12/23 09:14:35;;;;;;;8.32;5.45;;;12.10;96.70;;;;;;4891181;29;20059;-74
2022/12/23 09:17:03;;;;;;;9.57;5.57;;;12.10;96.70;;;;;;4908856;29;20519;-74
2022/12/23 09:19:32;;;;;;;10.00;6.30;;;12.20;96.70;;;;;;4898390;29;20484;-76
2022/12/23 09:21:59;;;;;;;10.07;6.53;;;12.10;96.70;;;;;;4890441;29;20049;-75
2022/12/23 09:24:27;;;;;;;11.00;6.45;;;12.20;96.70;;;;;;4893129;29;20638;-74
2022/12/23 09:26:56;;;;;;;8.85;5.65;;;12.20;96.70;;;;;;4900310;29;20127;-74
2022/12/23 09:29:27;;;;;;;7.53;6.20;;;12.20;96.70;;;;;;4897677;29;20698;-74
2022/12/23 09:31:56;;;;;;;10.02;5.95;;;12.20;96.70;;;;;;4907559;29;20044;-74
2022/12/23 09:34:26;;;;;;;10.82;6.30;;;12.20;96.70;;;;;;4912400;29;20067;-75
2022/12/23 09:36:56;;;;;;;9.82;6.50;;;12.20;96.70;;;;;;4909765;29;20116;-76
2022/12/23 09:39:26;;;;;;;9.27;6.90;;;12.30;96.70;;;;;;4887501;29;20620;-76
2022/12/23 09:42:04;;;;;;;11.23;7.53;;;12.40;96.70;;;;;;4892803;29;20047;-77
2022/12/23 09:44:44;;;;;;;12.43;8.23;;;12.40;96.70;;;;;;4890089;29;20055;-76
2022/12/23 09:47:16;;;;;;;14.90;8.43;;;12.50;96.70;;;;;;4890404;29;20060;-76
2022/12/23 09:49:48;;;;;;;9.50;6.85;;;12.50;96.70;;;;;;4902178;29;20128;-75
2022/12/23 09:52:23;;;;;;;9.18;6.55;;;12.60;96.70;;;;;;4896045;29;20037;-77
2022/12/23 09:54:53;;;;;;;10.63;6.82;;;12.60;96.70;;;;;;4893264;29;20087;-76
2022/12/23 09:57:27;;;;;;;9.80;7.10;;;12.60;96.70;;;;;;4896796;29;20562;-77
2022/12/23 10:00:05;;;;;;;14.55;7.35;;;12.70;96.70;;;;;;4898120;29;20582;-76
2022/12/23 10:02:44;;;;;;;11.73;6.50;;;12.70;96.70;;;;;;4895619;29;20042;-75
2022/12/23 10:05:21;;;;;;;9.88;6.10;;;12.70;96.70;;;;;;4902177;29;20052;-75
2022/12/23 10:07:52;;;;;;;9.27;6.40;;;12.80;96.70;;;;;;4902649;29;20059;-76
2022/12/23 10:10:30;;;;;;;11.85;6.32;;;12.80;96.70;;;;;;4900433;29;20045;-77
2022/12/23 10:13:01;;;;;;;9.30;5.97;;;12.90;96.70;;;;;;4894679;29;20048;-77
2022/12/23 10:15:36;;;;;;;8.40;5.82;;;12.90;96.70;;;;;;4879427;29;20770;-77
2022/12/23 10:18:11;;;;;;;9.38;5.93;;;12.90;96.70;;;;;;4901995;29;20040;-80
2022/12/23 10:20:47;;;;;;;8.55;6.07;;;12.90;96.70;;;;;;4917930;29;20068;-76
2022/12/23 10:23:20;;;;;;;11.02;7.10;;;12.90;96.70;;;;;;4887489;29;20044;-77
2022/12/23 10:25:50;;;;;;;11.45;6.82;;;12.90;96.70;;;;;;4906492;29;20048;-76
2022/12/23 10:28:18;;;;;;;14.27;10.20;;;12.90;96.70;;;;;;4900158;29;20122;-78
2022/12/23 10:30:59;;;;;;;10.60;8.50;;;12.90;96.70;;;;;;4894894;29;20051;-77
2022/12/23 10:33:56;;;;;;;12.77;7.72;;;13.00;96.70;;;;;;4914591;29;20063;-77
2022/12/23 10:36:36;;;;;;;12.45;8.18;;;13.00;96.70;;;;;;4927454;29;20055;-76
2022/12/23 10:39:12;;;;;;;11.68;7.18;;;13.10;96.70;;;;;;4908520;29;20078;-77
2022/12/23 10:41:52;;;;;;;13.02;9.95;;;13.10;96.70;;;;;;4909786;29;20075;-78
2022/12/23 10:44:39;;;;;;;16.65;10.55;;;13.10;96.70;;;;;;4918014;29;20143;-76
2022/12/23 10:47:18;;;;;;;15.18;9.07;;;13.20;96.70;;;;;;4917003;29;20062;-76
2022/12/23 10:49:55;;;;;;;11.23;8.75;;;13.20;96.70;;;;;;4921480;29;20059;-78
2022/12/23 10:52:27;;;;;;;12.02;9.05;;;13.30;96.70;;;;;;4926213;29;20063;-77
2022/12/23 10:54:55;;;;;;;12.27;7.82;;;13.30;96.70;;;;;;4891640;29;20056;-78
2022/12/23 10:57:24;;;;;;;11.57;7.97;;;13.40;96.70;;;;;;4876804;29;20119;-76
2022/12/23 10:59:52;;;;;;;11.13;7.30;;;13.30;96.70;;;;;;4904611;29;20047;-78
2022/12/23 11:02:34;;;;;;;10.82;9.35;;;13.30;96.70;;;;;;4922233;29;20640;-77
2022/12/23 11:05:04;;;;;;;9.20;7.60;;;13.40;96.70;;;;;;4876189;29;20107;-76
2022/12/23 11:07:33;;;;;;;10.30;7.32;;;13.30;96.70;;;;;;4891607;29;20139;-78
2022/12/23 11:10:16;;;;;;;8.32;7.22;;;13.40;96.70;;;;;;4902369;29;20526;-77
2022/12/23 11:12:46;;;;;;;8.93;7.32;;;13.40;96.70;;;;;;4917850;29;20043;-78
2022/12/23 11:15:28;;;;;;;10.10;6.82;;;13.40;96.70;;;;;;4908356;29;20048;-78
2022/12/23 11:18:04;;;;;;;8.85;7.38;;;13.40;96.70;;;;;;4891862;29;20047;-78
2022/12/23 11:20:34;;;;;;;14.33;12.83;;;13.40;96.70;;;;;;4906434;29;20478;-78
2022/12/23 11:23:03;;;;;;;13.60;8.82;;;13.40;96.70;;;;;;4892519;29;20099;-76
2022/12/23 11:25:35;;;;;;;10.93;6.95;;;13.40;96.70;;;;;;4891370;29;20068;-77
2022/12/23 11:28:06;;;;;;;10.48;7.88;;;13.40;96.70;;;;;;4920056;29;20773;-77
2022/12/23 11:30:44;;;;;;;9.10;7.32;;;13.50;96.70;;;;;;4904057;29;20044;-76
2022/12/23 11:33:25;;;;;;;11.05;7.53;;;13.50;96.70;;;;;;4891775;29;20098;-77
2022/12/23 11:36:02;;;;;;;10.13;7.20;;;13.50;96.70;;;;;;4910140;29;20150;-77
2022/12/23 11:38:30;;;;;;;10.30;8.20;;;13.50;96.70;;;;;;4884677;29;20384;-78
2022/12/23 11:40:58;;;;;;;11.60;8.70;;;13.60;96.70;;;;;;4893828;29;20205;-77
2022/12/23 11:47:38;;;;;;;12.45;7.50;;;13.60;96.70;;;;;;4838291;29;20581;-77
2022/12/23 11:50:28;;;;;;;9.30;7.22;;;13.70;96.70;;;;;;4821578;29;20114;-76
2022/12/23 11:53:08;;;;;;;11.82;7.90;;;13.60;96.70;;;;;;4839001;29;20145;-78
2022/12/23 11:55:42;;;;;;;11.82;8.18;;;13.60;96.70;;;;;;4837010;29;20124;-77
2022/12/23 11:58:18;;;;;;;13.15;10.20;;;13.50;96.70;;;;;;4840120;29;20049;-77
2022/12/23 12:00:53;;;;;;;12.55;8.52;;;13.50;96.70;;;;;;4822363;29;20145;-77
2022/12/23 12:03:26;;;;;;;12.50;8.70;;;13.50;96.70;;;;;;4815059;29;20125;-77
2022/12/23 12:05:59;;;;;;;9.57;7.68;;;13.50;96.70;;;;;;4837415;29;20145;-77
2022/12/23 12:08:31;;;;;;;13.10;8.15;;;13.50;96.70;;;;;;4839302;29;20061;-77
2022/12/23 12:11:05;;;;;;;10.25;7.30;;;13.50;96.70;;;;;;4832829;29;20194;-77
2022/12/23 12:13:37;;;;;;;9.38;6.72;;;13.50;96.70;;;;;;4820616;29;20060;-77
2022/12/23 12:16:21;;;;;;;9.30;6.53;;;13.40;96.70;;;;;;4815300;29;20058;-77
2022/12/23 12:18:52;;;;;;;10.65;6.63;;;13.40;96.70;;;;;;4822546;29;20062;-77
2022/12/23 12:21:28;;;;;;;11.00;6.95;;;13.40;96.70;;;;;;4832149;29;20593;-77
2022/12/23 12:24:04;;;;;;;10.35;7.45;;;13.40;96.70;;;;;;4865872;29;20056;-77
2022/12/23 12:26:49;;;;;;;10.65;7.20;;;13.40;96.70;;;;;;4892195;29;20047;-77
2022/12/23 12:29:25;;;;;;;15.07;10.75;;;13.40;96.70;;;;;;4892529;29;20127;-77
2022/12/23 12:31:57;;;;;;;11.32;8.35;;;13.40;96.70;;;;;;4890645;29;20084;-77
2022/12/23 12:34:36;;;;;;;12.35;9.25;;;13.40;96.70;;;;;;4916148;29;20125;-77
2022/12/23 12:37:21;;;;;;;11.68;7.22;;;13.50;96.70;;;;;;4916153;29;20518;-76
2022/12/23 12:39:53;;;;;;;9.68;6.90;;;13.50;96.70;;;;;;4890598;29;20048;-77
2022/12/23 12:42:29;;;;;;;10.70;8.13;;;13.50;96.70;;;;;;4877246;29;20119;-77
2022/12/23 12:45:09;;;;;;;12.73;9.10;;;13.50;96.70;;;;;;4892533;29;20044;-78
2022/12/23 12:47:40;;;;;;;14.38;7.82;;;13.50;96.70;;;;;;4892594;29;20474;-77
2022/12/23 12:50:32;;;;;;;10.63;7.07;;;13.50;96.70;;;;;;4902634;29;20094;-77
2022/12/23 12:53:11;;;;;;;12.25;7.82;;;13.50;96.70;;;;;;4905759;29;20058;-77
2022/12/23 12:55:45;;;;;;;10.80;7.53;;;13.50;96.70;;;;;;4902402;29;20056;-76
2022/12/23 12:58:18;;;;;;;11.23;7.30;;;13.50;96.70;;;;;;4890393;29;20052;-77
2022/12/23 13:00:56;;;;;;;12.95;7.68;;;13.50;96.70;;;;;;4906936;29;20578;-77
2022/12/23 13:03:43;;;;;;;9.13;6.55;;;13.50;96.70;;;;;;4907172;29;20039;-77
2022/12/23 13:06:19;;;;;;;14.40;8.95;;;13.50;96.70;;;;;;4924882;29;20052;-76
2022/12/23 13:09:01;;;;;;;12.85;7.35;;;13.50;96.70;;;;;;4890006;29;20127;-77
2022/12/23 13:11:37;;;;;;;9.98;6.25;;;13.50;96.70;;;;;;4891220;29;20124;-78
2022/12/23 13:14:14;;;;;;;13.85;7.95;;;13.50;96.70;;;;;;4907136;29;20495;-78
2022/12/23 13:16:49;;;;;;;11.77;7.35;;;13.60;96.70;;;;;;4907220;29;20048;-77
2022/12/23 13:19:25;;;;;;;14.80;7.78;;;13.60;96.70;;;;;;4894542;29;20052;-77
2022/12/23 13:22:00;;;;;;;9.30;6.75;;;13.70;96.70;;;;;;4896455;29;20067;-78
2022/12/23 13:24:36;;;;;;;10.57;8.00;;;13.70;96.70;;;;;;4905487;29;20579;-77
2022/12/23 13:27:10;;;;;;;13.02;8.43;;;13.70;96.70;;;;;;4897764;29;20048;-78
2022/12/23 13:30:01;;;;;;;12.55;8.52;;;13.70;96.70;;;;;;4891145;29;20053;-77
2022/12/23 13:32:55;;;;;;;11.07;8.38;;;13.60;96.70;;;;;;4904503;29;20084;-77
2022/12/23 13:35:36;;;;;;;13.65;9.70;;;13.60;96.70;;;;;;4889496;29;20498;-78